EIN5TJ EIDW-LFMN
Flight info
| Callsign | EIN5TJ |
|---|---|
| Flight time | N/A |
| Altitude | 39000 |
| Route | PESIT2J PESIT DCT BAKUR DCT GUBJE DCT DAVAZ DCT AVZAC DCT ICOSA DCT RUHUN DCT UNZIB DCT NUCHU L18 MID UL612 RESMI UM728 KETEX DCT KOTIS DCT KUKOR DCT UTUVA DCT LERGA DCT LIQID DCT LATAM DCT TUNUR DCT NISAR |
| Aircraft | A21N/M-SDE2E3FGHIRWXYZ/LB1 |
Departure
| Time | 2026-05-01 14:32 |
|---|---|
| Airport | Dublin Airport (EIDW) |
Arrival
| Time | N/A |
|---|---|
| Airport | Nice-Côte d'Azur Airport (LFMN) |
| Time | Latitude | Longitude | Altitude | Speed | Heading |
|---|---|---|---|---|---|
| 2026-05-01 13:42 | 53.42584 | -6.24497 | 218 ft | 0 kts | 306° |
| 2026-05-01 14:21 | 53.42580 | -6.24488 | 221 ft | 2 kts | 311° |
| 2026-05-01 14:22 | 53.42548 | -6.24467 | 216 ft | 3 kts | 345° |
| 2026-05-01 14:22 | 53.42530 | -6.24455 | 219 ft | 3 kts | 325° |
| 2026-05-01 14:22 | 53.42519 | -6.24436 | 218 ft | 3 kts | 280° |
| 2026-05-01 14:22 | 53.42520 | -6.24418 | 216 ft | 1 kts | 229° |
| 2026-05-01 14:23 | 53.42527 | -6.24403 | 216 ft | 3 kts | 213° |
| 2026-05-01 14:23 | 53.42536 | -6.24394 | 216 ft | 0 kts | 213° |
| 2026-05-01 14:25 | 53.42525 | -6.24406 | 216 ft | 4 kts | 214° |
| 2026-05-01 14:25 | 53.42494 | -6.24445 | 220 ft | 7 kts | 219° |
| 2026-05-01 14:26 | 53.42454 | -6.24521 | 216 ft | 10 kts | 247° |
| 2026-05-01 14:26 | 53.42453 | -6.24539 | 216 ft | 0 kts | 266° |
| 2026-05-01 14:26 | 53.42446 | -6.24562 | 222 ft | 4 kts | 242° |
| 2026-05-01 14:27 | 53.42423 | -6.24630 | 222 ft | 9 kts | 241° |
| 2026-05-01 14:27 | 53.42376 | -6.24743 | 220 ft | 14 kts | 228° |
| 2026-05-01 14:27 | 53.42303 | -6.24873 | 216 ft | 17 kts | 227° |
| 2026-05-01 14:28 | 53.42210 | -6.25261 | 218 ft | 21 kts | 274° |
| 2026-05-01 14:28 | 53.42223 | -6.25517 | 223 ft | 23 kts | 276° |
| 2026-05-01 14:28 | 53.42239 | -6.25796 | 223 ft | 25 kts | 276° |
| 2026-05-01 14:28 | 53.42256 | -6.26098 | 216 ft | 27 kts | 275° |
| 2026-05-01 14:29 | 53.42273 | -6.26422 | 220 ft | 29 kts | 275° |
| 2026-05-01 14:29 | 53.42293 | -6.26768 | 216 ft | 31 kts | 275° |
| 2026-05-01 14:30 | 53.42349 | -6.27801 | 223 ft | 29 kts | 275° |
| 2026-05-01 14:30 | 53.42367 | -6.28109 | 216 ft | 19 kts | 275° |
| 2026-05-01 14:30 | 53.42366 | -6.28298 | 219 ft | 12 kts | 230° |
| 2026-05-01 14:31 | 53.42221 | -6.28275 | 225 ft | 11 kts | 182° |
| 2026-05-01 14:31 | 53.42196 | -6.28148 | 217 ft | 17 kts | 94° |
| 2026-05-01 14:31 | 53.42172 | -6.27500 | 217 ft | 96 kts | 101° |
| 2026-05-01 14:31 | 53.42074 | -6.25994 | 220 ft | 163 kts | 97° |
| 2026-05-01 14:32 | 53.41978 | -6.24033 | 802 ft | 168 kts | 96° |
| 2026-05-01 14:32 | 53.41879 | -6.22048 | 1588 ft | 174 kts | 101° |
| 2026-05-01 14:32 | 53.41742 | -6.19962 | 2271 ft | 188 kts | 99° |
| 2026-05-01 14:32 | 53.41611 | -6.17681 | 2923 ft | 206 kts | 100° |
| 2026-05-01 14:33 | 53.41465 | -6.15121 | 3508 ft | 237 kts | 100° |
| 2026-05-01 14:33 | 53.41304 | -6.12281 | 4229 ft | 259 kts | 98° |
| 2026-05-01 14:33 | 53.41132 | -6.09210 | 5229 ft | 268 kts | 99° |
| 2026-05-01 14:33 | 53.40956 | -6.06062 | 6336 ft | 272 kts | 100° |
| 2026-05-01 14:34 | 53.40744 | -6.03073 | 7323 ft | 274 kts | 107° |
| 2026-05-01 14:34 | 53.40187 | -6.00172 | 8162 ft | 273 kts | 121° |
| 2026-05-01 14:34 | 53.39042 | -5.97726 | 8967 ft | 266 kts | 144° |
| 2026-05-01 14:34 | 53.37424 | -5.96268 | 10034 ft | 264 kts | 166° |
| 2026-05-01 14:35 | 53.35604 | -5.95724 | 10925 ft | 272 kts | 174° |
| 2026-05-01 14:35 | 53.33651 | -5.95370 | 11539 ft | 293 kts | 175° |
| 2026-05-01 14:35 | 53.31529 | -5.94974 | 11873 ft | 321 kts | 174° |
| 2026-05-01 14:35 | 53.29200 | -5.94505 | 12038 ft | 351 kts | 174° |
| 2026-05-01 14:36 | 53.26687 | -5.93974 | 12109 ft | 372 kts | 174° |
| 2026-05-01 14:36 | 53.24115 | -5.93419 | 12129 ft | 373 kts | 173° |
| 2026-05-01 14:36 | 53.21538 | -5.92863 | 12126 ft | 373 kts | 173° |
| 2026-05-01 14:36 | 53.18966 | -5.92309 | 12125 ft | 373 kts | 174° |
| 2026-05-01 14:37 | 53.16388 | -5.91759 | 12417 ft | 374 kts | 174° |
| 2026-05-01 14:37 | 53.13825 | -5.91214 | 13108 ft | 378 kts | 174° |
| 2026-05-01 14:37 | 53.11199 | -5.90653 | 13872 ft | 382 kts | 174° |
| 2026-05-01 14:37 | 53.08551 | -5.90082 | 14513 ft | 385 kts | 173° |
| 2026-05-01 14:38 | 53.05884 | -5.89510 | 15173 ft | 388 kts | 173° |
| 2026-05-01 14:38 | 53.03366 | -5.88971 | 15827 ft | 390 kts | 173° |
| 2026-05-01 14:38 | 53.00499 | -5.88363 | 16492 ft | 392 kts | 174° |
| 2026-05-01 14:38 | 52.97783 | -5.87797 | 17081 ft | 395 kts | 173° |
| 2026-05-01 14:39 | 52.95046 | -5.87221 | 17662 ft | 397 kts | 173° |
| 2026-05-01 14:39 | 52.92292 | -5.86643 | 18243 ft | 400 kts | 173° |
| 2026-05-01 14:39 | 52.89517 | -5.86059 | 18767 ft | 402 kts | 173° |
| 2026-05-01 14:39 | 52.86732 | -5.85472 | 19268 ft | 405 kts | 173° |
| 2026-05-01 14:40 | 52.83923 | -5.84876 | 19762 ft | 408 kts | 173° |
| 2026-05-01 14:40 | 52.81101 | -5.84282 | 20266 ft | 411 kts | 173° |
| 2026-05-01 14:40 | 52.78257 | -5.83686 | 20776 ft | 414 kts | 173° |
| 2026-05-01 14:40 | 52.75388 | -5.83084 | 21292 ft | 417 kts | 173° |
| 2026-05-01 14:41 | 52.72495 | -5.82477 | 21833 ft | 420 kts | 173° |
| 2026-05-01 14:41 | 52.69622 | -5.81872 | 22356 ft | 424 kts | 173° |
| 2026-05-01 14:41 | 52.66686 | -5.81255 | 22860 ft | 427 kts | 173° |
| 2026-05-01 14:41 | 52.63730 | -5.80633 | 23345 ft | 430 kts | 173° |
| 2026-05-01 14:42 | 52.60753 | -5.80013 | 23790 ft | 433 kts | 173° |
| 2026-05-01 14:42 | 52.57756 | -5.79390 | 24141 ft | 436 kts | 173° |
| 2026-05-01 14:42 | 52.54736 | -5.78765 | 24511 ft | 437 kts | 173° |
| 2026-05-01 14:42 | 52.51728 | -5.78134 | 24965 ft | 435 kts | 173° |
| 2026-05-01 14:43 | 52.48732 | -5.77511 | 25414 ft | 433 kts | 173° |
| 2026-05-01 14:43 | 52.45744 | -5.76891 | 25850 ft | 431 kts | 173° |
| 2026-05-01 14:43 | 52.42776 | -5.76278 | 26303 ft | 429 kts | 173° |
| 2026-05-01 14:43 | 52.39832 | -5.75554 | 26747 ft | 427 kts | 169° |
| 2026-05-01 14:44 | 52.36955 | -5.74300 | 27177 ft | 427 kts | 165° |
| 2026-05-01 14:44 | 52.31294 | -5.71524 | 28056 ft | 423 kts | 165° |
| 2026-05-01 14:44 | 52.28480 | -5.70145 | 28489 ft | 421 kts | 165° |
| 2026-05-01 14:45 | 52.25683 | -5.68782 | 28927 ft | 419 kts | 165° |
| 2026-05-01 14:45 | 52.20271 | -5.65453 | 29802 ft | 417 kts | 160° |
| 2026-05-01 14:45 | 52.17597 | -5.63645 | 30244 ft | 415 kts | 160° |
| 2026-05-01 14:46 | 52.14939 | -5.61842 | 30589 ft | 413 kts | 160° |
| 2026-05-01 14:46 | 52.09631 | -5.58258 | 31245 ft | 412 kts | 160° |
| 2026-05-01 14:46 | 52.06982 | -5.56479 | 31589 ft | 411 kts | 160° |
| 2026-05-01 14:47 | 52.04347 | -5.54705 | 31938 ft | 409 kts | 159° |
| 2026-05-01 14:47 | 52.01742 | -5.52849 | 32282 ft | 408 kts | 159° |
| 2026-05-01 14:47 | 51.99151 | -5.50985 | 32615 ft | 407 kts | 158° |
| 2026-05-01 14:48 | 51.93984 | -5.47269 | 33256 ft | 405 kts | 158° |
| 2026-05-01 14:48 | 51.91654 | -5.45330 | 33546 ft | 406 kts | 152° |
| 2026-05-01 14:48 | 51.87358 | -5.39032 | 34077 ft | 417 kts | 131° |
| 2026-05-01 14:49 | 51.84592 | -5.30643 | 34491 ft | 426 kts | 120° |
| 2026-05-01 14:49 | 51.82130 | -5.21905 | 34864 ft | 427 kts | 120° |
| 2026-05-01 14:50 | 51.80470 | -5.16138 | 35107 ft | 428 kts | 121° |
| 2026-05-01 14:50 | 51.77409 | -5.04261 | 35559 ft | 438 kts | 109° |
| 2026-05-01 14:51 | 51.76783 | -4.99424 | 35737 ft | 441 kts | 107° |
| 2026-05-01 14:51 | 51.75666 | -4.89660 | 36081 ft | 442 kts | 107° |
| 2026-05-01 14:52 | 51.74518 | -4.79887 | 36362 ft | 444 kts | 106° |
| 2026-05-01 14:52 | 51.73934 | -4.74985 | 36539 ft | 444 kts | 106° |
| 2026-05-01 14:52 | 51.72794 | -4.65510 | 36869 ft | 444 kts | 106° |
| 2026-05-01 14:53 | 51.72204 | -4.60678 | 37029 ft | 445 kts | 106° |
| 2026-05-01 14:53 | 51.71596 | -4.55718 | 37174 ft | 445 kts | 106° |
| 2026-05-01 14:53 | 51.71007 | -4.50888 | 37308 ft | 446 kts | 106° |
| 2026-05-01 14:53 | 51.70424 | -4.46152 | 37442 ft | 446 kts | 106° |
| 2026-05-01 14:54 | 51.69827 | -4.41298 | 37587 ft | 446 kts | 106° |
| 2026-05-01 14:54 | 51.69220 | -4.36393 | 37739 ft | 447 kts | 106° |
| 2026-05-01 14:54 | 51.68610 | -4.31489 | 37840 ft | 446 kts | 106° |